sensor_id;sensor_type;location;lat;lon;timestamp;P1;durP1;ratioP1;P2;durP2;ratioP2
16029;SDS011;34770;49.272;11.070;2022-12-29T00:20:59;3.03;;;2.72;;
16029;SDS011;34770;49.272;11.070;2022-12-29T00:31:26;2.22;;;2.03;;
16029;SDS011;34770;49.272;11.070;2022-12-29T00:34:13;3.28;;;2.53;;
16029;SDS011;34770;49.272;11.070;2022-12-29T00:37:15;2.90;;;2.58;;
16029;SDS011;34770;49.272;11.070;2022-12-29T00:42:40;2.78;;;2.58;;
16029;SDS011;34770;49.272;11.070;2022-12-29T00:45:24;2.38;;;2.17;;
16029;SDS011;34770;49.272;11.070;2022-12-29T00:47:53;3.60;;;2.85;;
16029;SDS011;34770;49.272;11.070;2022-12-29T00:58:28;2.53;;;2.33;;
16029;SDS011;34770;49.272;11.070;2022-12-29T01:01:06;3.85;;;3.28;;
16029;SDS011;34770;49.272;11.070;2022-12-29T01:03:35;3.13;;;2.83;;
16029;SDS011;34770;49.272;11.070;2022-12-29T01:06:10;3.47;;;2.83;;
16029;SDS011;34770;49.272;11.070;2022-12-29T01:08:45;4.00;;;3.47;;
16029;SDS011;34770;49.272;11.070;2022-12-29T01:11:38;3.15;;;2.22;;
16029;SDS011;34770;49.272;11.070;2022-12-29T01:14:07;3.55;;;3.25;;
16029;SDS011;34770;49.272;11.070;2022-12-29T01:16:38;2.95;;;2.50;;
16029;SDS011;34770;49.272;11.070;2022-12-29T01:19:08;2.67;;;2.47;;
16029;SDS011;34770;49.272;11.070;2022-12-29T01:21:45;3.28;;;2.97;;
16029;SDS011;34770;49.272;11.070;2022-12-29T01:24:25;3.13;;;2.70;;
16029;SDS011;34770;49.272;11.070;2022-12-29T01:26:55;3.03;;;2.70;;
16029;SDS011;34770;49.272;11.070;2022-12-29T01:29:28;2.80;;;2.33;;
16029;SDS011;34770;49.272;11.070;2022-12-29T01:32:03;3.15;;;2.95;;
16029;SDS011;34770;49.272;11.070;2022-12-29T01:40:20;2.38;;;2.17;;
16029;SDS011;34770;49.272;11.070;2022-12-29T01:42:49;2.88;;;2.65;;
16029;SDS011;34770;49.272;11.070;2022-12-29T01:45:31;2.47;;;2.28;;
16029;SDS011;34770;49.272;11.070;2022-12-29T01:48:00;2.67;;;2.47;;
16029;SDS011;34770;49.272;11.070;2022-12-29T01:56:01;3.10;;;2.55;;
16029;SDS011;34770;49.272;11.070;2022-12-29T01:58:34;2.53;;;2.33;;
16029;SDS011;34770;49.272;11.070;2022-12-29T02:01:09;2.35;;;2.15;;
16029;SDS011;34770;49.272;11.070;2022-12-29T02:03:44;2.92;;;2.30;;
16029;SDS011;34770;49.272;11.070;2022-12-29T02:06:17;2.28;;;1.98;;
16029;SDS011;34770;49.272;11.070;2022-12-29T02:08:47;6.43;;;2.53;;
16029;SDS011;34770;49.272;11.070;2022-12-29T02:11:26;2.70;;;2.13;;
16029;SDS011;34770;49.272;11.070;2022-12-29T02:14:12;5.07;;;2.60;;
16029;SDS011;34770;49.272;11.070;2022-12-29T02:16:46;2.78;;;2.00;;
16029;SDS011;34770;49.272;11.070;2022-12-29T02:22:26;2.40;;;1.95;;
16029;SDS011;34770;49.272;11.070;2022-12-29T02:38:14;2.10;;;2.00;;
16029;SDS011;34770;49.272;11.070;2022-12-29T02:49:05;2.70;;;2.22;;
16029;SDS011;34770;49.272;11.070;2022-12-29T02:56:59;1.95;;;1.80;;
16029;SDS011;34770;49.272;11.070;2022-12-29T03:04:42;2.35;;;2.25;;
16029;SDS011;34770;49.272;11.070;2022-12-29T03:23:36;2.00;;;1.85;;
16029;SDS011;34770;49.272;11.070;2022-12-29T03:26:10;2.00;;;1.80;;
16029;SDS011;34770;49.272;11.070;2022-12-29T03:28:50;2.25;;;2.05;;
16029;SDS011;34770;49.272;11.070;2022-12-29T03:31:22;2.28;;;1.77;;
16029;SDS011;34770;49.272;11.070;2022-12-29T03:33:51;3.70;;;2.30;;
16029;SDS011;34770;49.272;11.070;2022-12-29T03:36:27;2.63;;;2.20;;
16029;SDS011;34770;49.272;11.070;2022-12-29T03:39:08;3.33;;;3.03;;
16029;SDS011;34770;49.272;11.070;2022-12-29T03:41:39;2.28;;;2.08;;
16029;SDS011;34770;49.272;11.070;2022-12-29T03:44:10;2.05;;;1.85;;
16029;SDS011;34770;49.272;11.070;2022-12-29T03:46:38;2.95;;;2.15;;
16029;SDS011;34770;49.272;11.070;2022-12-29T03:49:06;3.03;;;1.88;;
16029;SDS011;34770;49.272;11.070;2022-12-29T03:51:34;2.05;;;1.90;;
16029;SDS011;34770;49.272;11.070;2022-12-29T03:54:03;2.35;;;2.15;;
16029;SDS011;34770;49.272;11.070;2022-12-29T03:56:31;2.20;;;2.10;;
16029;SDS011;34770;49.272;11.070;2022-12-29T03:59:04;1.92;;;1.73;;
16029;SDS011;34770;49.272;11.070;2022-12-29T04:01:34;3.15;;;2.13;;
16029;SDS011;34770;49.272;11.070;2022-12-29T04:04:06;1.75;;;1.65;;
16029;SDS011;34770;49.272;11.070;2022-12-29T04:06:37;2.65;;;2.45;;
16029;SDS011;34770;49.272;11.070;2022-12-29T04:09:06;2.45;;;2.25;;
16029;SDS011;34770;49.272;11.070;2022-12-29T04:11:39;2.75;;;2.55;;
16029;SDS011;34770;49.272;11.070;2022-12-29T04:14:08;2.45;;;1.90;;
16029;SDS011;34770;49.272;11.070;2022-12-29T04:16:36;1.77;;;1.65;;
16029;SDS011;34770;49.272;11.070;2022-12-29T04:19:10;2.38;;;2.20;;
16029;SDS011;34770;49.272;11.070;2022-12-29T04:21:41;2.15;;;1.90;;
16029;SDS011;34770;49.272;11.070;2022-12-29T04:24:13;2.38;;;2.05;;
16029;SDS011;34770;49.272;11.070;2022-12-29T04:26:46;4.30;;;1.90;;
16029;SDS011;34770;49.272;11.070;2022-12-29T04:29:24;2.78;;;2.53;;
16029;SDS011;34770;49.272;11.070;2022-12-29T04:31:52;2.42;;;2.22;;
16029;SDS011;34770;49.272;11.070;2022-12-29T04:34:24;1.75;;;1.65;;
16029;SDS011;34770;49.272;11.070;2022-12-29T04:36:56;3.08;;;2.00;;
16029;SDS011;34770;49.272;11.070;2022-12-29T04:39:26;2.35;;;2.15;;
16029;SDS011;34770;49.272;11.070;2022-12-29T04:41:56;3.33;;;3.00;;
16029;SDS011;34770;49.272;11.070;2022-12-29T04:44:34;3.85;;;2.20;;
16029;SDS011;34770;49.272;11.070;2022-12-29T04:47:05;2.72;;;2.53;;
16029;SDS011;34770;49.272;11.070;2022-12-29T04:49:33;2.50;;;2.30;;
16029;SDS011;34770;49.272;11.070;2022-12-29T04:52:08;2.25;;;2.00;;
16029;SDS011;34770;49.272;11.070;2022-12-29T04:55:05;3.30;;;2.20;;
16029;SDS011;34770;49.272;11.070;2022-12-29T04:57:50;2.58;;;2.28;;
16029;SDS011;34770;49.272;11.070;2022-12-29T05:00:50;2.28;;;2.17;;
16029;SDS011;34770;49.272;11.070;2022-12-29T05:03:29;4.82;;;2.35;;
16029;SDS011;34770;49.272;11.070;2022-12-29T05:06:21;2.40;;;2.20;;
16029;SDS011;34770;49.272;11.070;2022-12-29T05:08:59;2.05;;;1.90;;
16029;SDS011;34770;49.272;11.070;2022-12-29T05:11:41;2.17;;;1.98;;
16029;SDS011;34770;49.272;11.070;2022-12-29T05:14:11;5.38;;;2.38;;
16029;SDS011;34770;49.272;11.070;2022-12-29T05:16:56;2.47;;;2.28;;
16029;SDS011;34770;49.272;11.070;2022-12-29T05:19:31;5.20;;;2.72;;
16029;SDS011;34770;49.272;11.070;2022-12-29T05:22:09;2.35;;;2.15;;
16029;SDS011;34770;49.272;11.070;2022-12-29T05:24:41;2.38;;;2.28;;
16029;SDS011;34770;49.272;11.070;2022-12-29T05:27:13;2.63;;;2.42;;
16029;SDS011;34770;49.272;11.070;2022-12-29T05:29:42;2.60;;;2.40;;
16029;SDS011;34770;49.272;11.070;2022-12-29T05:32:12;2.25;;;2.05;;
16029;SDS011;34770;49.272;11.070;2022-12-29T05:34:44;2.33;;;2.13;;
16029;SDS011;34770;49.272;11.070;2022-12-29T05:37:16;2.57;;;2.37;;
16029;SDS011;34770;49.272;11.070;2022-12-29T05:39:51;2.87;;;2.67;;
16029;SDS011;34770;49.272;11.070;2022-12-29T05:42:30;2.72;;;2.33;;
16029;SDS011;34770;49.272;11.070;2022-12-29T05:45:01;2.43;;;2.23;;
16029;SDS011;34770;49.272;11.070;2022-12-29T05:47:27;3.70;;;3.13;;
16029;SDS011;34770;49.272;11.070;2022-12-29T05:49:52;2.70;;;2.50;;
16029;SDS011;34770;49.272;11.070;2022-12-29T05:52:18;4.13;;;3.47;;
16029;SDS011;34770;49.272;11.070;2022-12-29T05:54:43;3.87;;;2.83;;
16029;SDS011;34770;49.272;11.070;2022-12-29T05:57:08;3.10;;;2.80;;
16029;SDS011;34770;49.272;11.070;2022-12-29T05:59:34;3.40;;;3.13;;
16029;SDS011;34770;49.272;11.070;2022-12-29T06:02:00;4.30;;;2.80;;
16029;SDS011;34770;49.272;11.070;2022-12-29T06:04:25;3.17;;;2.87;;
16029;SDS011;34770;49.272;11.070;2022-12-29T06:06:50;3.65;;;1.73;;
16029;SDS011;34770;49.272;11.070;2022-12-29T06:09:16;2.95;;;2.55;;
16029;SDS011;34770;49.272;11.070;2022-12-29T06:11:41;2.88;;;2.58;;
16029;SDS011;34770;49.272;11.070;2022-12-29T06:14:07;2.47;;;2.15;;
16029;SDS011;34770;49.272;11.070;2022-12-29T06:16:33;3.33;;;3.03;;
16029;SDS011;34770;49.272;11.070;2022-12-29T06:18:58;2.65;;;2.45;;
16029;SDS011;34770;49.272;11.070;2022-12-29T06:21:23;3.53;;;3.05;;
16029;SDS011;34770;49.272;11.070;2022-12-29T06:23:49;2.97;;;2.60;;
16029;SDS011;34770;49.272;11.070;2022-12-29T06:26:14;3.88;;;3.35;;
16029;SDS011;34770;49.272;11.070;2022-12-29T06:28:40;4.95;;;3.85;;
16029;SDS011;34770;49.272;11.070;2022-12-29T06:31:06;5.20;;;3.65;;
16029;SDS011;34770;49.272;11.070;2022-12-29T06:33:34;3.72;;;2.67;;
16029;SDS011;34770;49.272;11.070;2022-12-29T06:36:00;3.03;;;2.80;;
16029;SDS011;34770;49.272;11.070;2022-12-29T06:38:25;3.25;;;2.80;;
16029;SDS011;34770;49.272;11.070;2022-12-29T06:40:51;2.80;;;2.58;;
16029;SDS011;34770;49.272;11.070;2022-12-29T06:43:16;2.38;;;2.17;;
16029;SDS011;34770;49.272;11.070;2022-12-29T06:45:41;3.55;;;2.90;;
16029;SDS011;34770;49.272;11.070;2022-12-29T06:48:10;3.38;;;1.90;;
16029;SDS011;34770;49.272;11.070;2022-12-29T06:50:35;2.50;;;2.30;;
16029;SDS011;34770;49.272;11.070;2022-12-29T06:53:01;2.60;;;2.40;;
16029;SDS011;34770;49.272;11.070;2022-12-29T06:55:26;2.40;;;2.20;;
16029;SDS011;34770;49.272;11.070;2022-12-29T06:57:56;2.63;;;2.33;;
16029;SDS011;34770;49.272;11.070;2022-12-29T07:00:22;3.25;;;2.20;;
16029;SDS011;34770;49.272;11.070;2022-12-29T07:02:48;3.58;;;3.10;;
16029;SDS011;34770;49.272;11.070;2022-12-29T07:05:14;6.45;;;4.63;;
16029;SDS011;34770;49.272;11.070;2022-12-29T07:07:39;3.33;;;3.03;;
16029;SDS011;34770;49.272;11.070;2022-12-29T07:10:05;2.65;;;2.45;;
16029;SDS011;34770;49.272;11.070;2022-12-29T07:12:31;5.10;;;2.38;;
16029;SDS011;34770;49.272;11.070;2022-12-29T07:14:56;2.47;;;2.28;;
16029;SDS011;34770;49.272;11.070;2022-12-29T07:17:21;3.00;;;2.20;;
16029;SDS011;34770;49.272;11.070;2022-12-29T07:19:47;2.97;;;2.10;;
16029;SDS011;34770;49.272;11.070;2022-12-29T07:22:12;3.60;;;2.35;;
16029;SDS011;34770;49.272;11.070;2022-12-29T07:24:37;6.55;;;2.88;;
16029;SDS011;34770;49.272;11.070;2022-12-29T07:27:03;3.00;;;2.30;;
16029;SDS011;34770;49.272;11.070;2022-12-29T07:29:28;4.50;;;2.20;;
16029;SDS011;34770;49.272;11.070;2022-12-29T07:31:54;4.45;;;2.17;;
16029;SDS011;34770;49.272;11.070;2022-12-29T07:34:19;3.38;;;2.90;;
16029;SDS011;34770;49.272;11.070;2022-12-29T07:36:44;4.65;;;3.30;;
16029;SDS011;34770;49.272;11.070;2022-12-29T07:39:10;4.38;;;2.15;;
16029;SDS011;34770;49.272;11.070;2022-12-29T07:41:36;2.63;;;2.30;;
16029;SDS011;34770;49.272;11.070;2022-12-29T07:44:01;3.63;;;2.30;;
16029;SDS011;34770;49.272;11.070;2022-12-29T07:46:27;13.68;;;2.70;;
16029;SDS011;34770;49.272;11.070;2022-12-29T07:48:52;5.10;;;3.55;;
16029;SDS011;34770;49.272;11.070;2022-12-29T07:51:18;5.25;;;4.30;;
16029;SDS011;34770;49.272;11.070;2022-12-29T07:53:43;5.22;;;2.60;;
16029;SDS011;34770;49.272;11.070;2022-12-29T07:56:08;2.97;;;2.60;;
16029;SDS011;34770;49.272;11.070;2022-12-29T07:58:34;4.15;;;3.13;;
16029;SDS011;34770;49.272;11.070;2022-12-29T08:00:59;4.00;;;3.53;;
16029;SDS011;34770;49.272;11.070;2022-12-29T08:03:24;6.18;;;4.47;;
16029;SDS011;34770;49.272;11.070;2022-12-29T08:05:51;7.55;;;5.18;;
16029;SDS011;34770;49.272;11.070;2022-12-29T08:08:17;3.60;;;2.90;;
16029;SDS011;34770;49.272;11.070;2022-12-29T08:10:43;3.05;;;2.75;;
16029;SDS011;34770;49.272;11.070;2022-12-29T08:13:08;3.65;;;2.30;;
16029;SDS011;34770;49.272;11.070;2022-12-29T08:15:33;2.35;;;2.15;;
16029;SDS011;34770;49.272;11.070;2022-12-29T08:17:59;5.43;;;2.35;;
16029;SDS011;34770;49.272;11.070;2022-12-29T08:20:24;2.88;;;2.67;;
16029;SDS011;34770;49.272;11.070;2022-12-29T08:22:50;3.72;;;3.10;;
16029;SDS011;34770;49.272;11.070;2022-12-29T08:25:16;2.60;;;2.40;;
16029;SDS011;34770;49.272;11.070;2022-12-29T08:27:41;3.13;;;2.83;;
16029;SDS011;34770;49.272;11.070;2022-12-29T08:30:07;3.67;;;2.65;;
16029;SDS011;34770;49.272;11.070;2022-12-29T08:32:33;3.50;;;2.45;;
16029;SDS011;34770;49.272;11.070;2022-12-29T08:34:58;2.10;;;1.90;;
16029;SDS011;34770;49.272;11.070;2022-12-29T08:37:24;3.35;;;2.63;;
16029;SDS011;34770;49.272;11.070;2022-12-29T08:39:49;2.08;;;1.90;;
16029;SDS011;34770;49.272;11.070;2022-12-29T08:42:14;2.00;;;1.90;;
16029;SDS011;34770;49.272;11.070;2022-12-29T08:44:40;2.60;;;2.30;;
16029;SDS011;34770;49.272;11.070;2022-12-29T08:47:05;2.90;;;2.55;;
16029;SDS011;34770;49.272;11.070;2022-12-29T08:49:31;3.40;;;2.72;;
16029;SDS011;34770;49.272;11.070;2022-12-29T08:51:58;3.75;;;3.13;;
16029;SDS011;34770;49.272;11.070;2022-12-29T08:54:23;4.22;;;2.70;;
16029;SDS011;34770;49.272;11.070;2022-12-29T08:56:49;3.08;;;2.75;;
16029;SDS011;34770;49.272;11.070;2022-12-29T08:59:14;8.50;;;5.18;;
16029;SDS011;34770;49.272;11.070;2022-12-29T09:01:40;5.70;;;4.20;;
16029;SDS011;34770;49.272;11.070;2022-12-29T09:04:06;7.50;;;3.97;;
16029;SDS011;34770;49.272;11.070;2022-12-29T09:06:32;5.30;;;3.65;;
16029;SDS011;34770;49.272;11.070;2022-12-29T09:08:58;3.40;;;2.47;;
16029;SDS011;34770;49.272;11.070;2022-12-29T09:11:24;4.97;;;3.55;;
16029;SDS011;34770;49.272;11.070;2022-12-29T09:13:51;4.45;;;3.50;;
16029;SDS011;34770;49.272;11.070;2022-12-29T09:16:18;4.00;;;3.58;;
16029;SDS011;34770;49.272;11.070;2022-12-29T09:18:45;4.05;;;2.88;;
16029;SDS011;34770;49.272;11.070;2022-12-29T09:21:11;4.00;;;3.40;;
16029;SDS011;34770;49.272;11.070;2022-12-29T09:23:37;2.70;;;2.50;;
16029;SDS011;34770;49.272;11.070;2022-12-29T09:26:03;3.30;;;2.60;;
16029;SDS011;34770;49.272;11.070;2022-12-29T09:28:29;4.80;;;2.65;;
16029;SDS011;34770;49.272;11.070;2022-12-29T09:30:54;3.50;;;2.90;;
16029;SDS011;34770;49.272;11.070;2022-12-29T09:33:20;6.03;;;2.95;;
16029;SDS011;34770;49.272;11.070;2022-12-29T09:35:50;6.13;;;3.20;;
16029;SDS011;34770;49.272;11.070;2022-12-29T09:38:17;2.70;;;2.50;;
16029;SDS011;34770;49.272;11.070;2022-12-29T09:40:44;3.38;;;3.03;;
16029;SDS011;34770;49.272;11.070;2022-12-29T09:49:03;2.40;;;2.20;;
16029;SDS011;34770;49.272;11.070;2022-12-29T09:51:39;5.63;;;3.25;;
16029;SDS011;34770;49.272;11.070;2022-12-29T09:56:54;6.13;;;3.00;;
16029;SDS011;34770;49.272;11.070;2022-12-29T09:59:21;3.80;;;2.88;;
16029;SDS011;34770;49.272;11.070;2022-12-29T10:04:53;10.05;;;4.10;;
16029;SDS011;34770;49.272;11.070;2022-12-29T10:07:33;8.38;;;3.90;;
16029;SDS011;34770;49.272;11.070;2022-12-29T10:23:51;5.15;;;3.60;;
16029;SDS011;34770;49.272;11.070;2022-12-29T10:26:19;6.88;;;3.40;;
16029;SDS011;34770;49.272;11.070;2022-12-29T10:28:48;3.85;;;2.38;;
16029;SDS011;34770;49.272;11.070;2022-12-29T10:31:22;3.00;;;2.67;;
16029;SDS011;34770;49.272;11.070;2022-12-29T10:33:59;3.53;;;2.30;;
16029;SDS011;34770;49.272;11.070;2022-12-29T10:36:41;2.38;;;2.15;;
16029;SDS011;34770;49.272;11.070;2022-12-29T10:39:14;3.25;;;2.17;;
16029;SDS011;34770;49.272;11.070;2022-12-29T10:41:55;4.10;;;2.45;;
16029;SDS011;34770;49.272;11.070;2022-12-29T10:44:43;2.95;;;2.70;;
16029;SDS011;34770;49.272;11.070;2022-12-29T10:47:11;2.83;;;2.25;;
16029;SDS011;34770;49.272;11.070;2022-12-29T10:49:41;2.88;;;2.50;;
16029;SDS011;34770;49.272;11.070;2022-12-29T10:52:11;3.17;;;2.33;;
16029;SDS011;34770;49.272;11.070;2022-12-29T10:55:21;4.93;;;2.55;;
16029;SDS011;34770;49.272;11.070;2022-12-29T10:57:35;5.70;;;4.15;;
16029;SDS011;34770;49.272;11.070;2022-12-29T11:05:10;5.40;;;3.78;;
16029;SDS011;34770;49.272;11.070;2022-12-29T11:08:02;2.92;;;2.45;;
16029;SDS011;34770;49.272;11.070;2022-12-29T11:13:03;4.18;;;2.65;;
16029;SDS011;34770;49.272;11.070;2022-12-29T11:15:39;3.17;;;2.88;;
16029;SDS011;34770;49.272;11.070;2022-12-29T11:18:24;3.03;;;2.58;;
16029;SDS011;34770;49.272;11.070;2022-12-29T11:20:55;4.00;;;2.42;;
16029;SDS011;34770;49.272;11.070;2022-12-29T11:23:35;4.05;;;2.47;;
16029;SDS011;34770;49.272;11.070;2022-12-29T11:28:32;4.53;;;3.23;;
16029;SDS011;34770;49.272;11.070;2022-12-29T11:31:01;4.57;;;2.83;;
16029;SDS011;34770;49.272;11.070;2022-12-29T11:33:28;4.38;;;3.28;;
16029;SDS011;34770;49.272;11.070;2022-12-29T11:35:58;7.90;;;3.88;;
16029;SDS011;34770;49.272;11.070;2022-12-29T11:38:33;6.63;;;4.70;;
16029;SDS011;34770;49.272;11.070;2022-12-29T11:41:01;3.42;;;3.13;;
16029;SDS011;34770;49.272;11.070;2022-12-29T11:43:36;4.80;;;2.95;;
16029;SDS011;34770;49.272;11.070;2022-12-29T11:46:03;4.47;;;2.42;;
16029;SDS011;34770;49.272;11.070;2022-12-29T11:48:51;3.88;;;2.47;;
16029;SDS011;34770;49.272;11.070;2022-12-29T11:51:59;3.45;;;2.63;;
16029;SDS011;34770;49.272;11.070;2022-12-29T11:54:33;2.42;;;2.20;;
16029;SDS011;34770;49.272;11.070;2022-12-29T11:57:12;3.97;;;3.40;;
16029;SDS011;34770;49.272;11.070;2022-12-29T11:59:48;3.80;;;3.47;;
16029;SDS011;34770;49.272;11.070;2022-12-29T12:02:35;3.03;;;2.60;;
16029;SDS011;34770;49.272;11.070;2022-12-29T12:08:03;2.75;;;2.42;;
16029;SDS011;34770;49.272;11.070;2022-12-29T12:10:41;2.78;;;2.22;;
16029;SDS011;34770;49.272;11.070;2022-12-29T12:15:57;3.08;;;2.13;;
16029;SDS011;34770;49.272;11.070;2022-12-29T12:23:54;3.92;;;2.30;;
16029;SDS011;34770;49.272;11.070;2022-12-29T12:26:30;2.78;;;2.40;;
16029;SDS011;34770;49.272;11.070;2022-12-29T12:29:22;2.60;;;2.40;;
16029;SDS011;34770;49.272;11.070;2022-12-29T12:32:17;2.00;;;1.67;;
16029;SDS011;34770;49.272;11.070;2022-12-29T12:34:56;4.43;;;2.30;;
16029;SDS011;34770;49.272;11.070;2022-12-29T12:42:56;2.47;;;2.10;;
16029;SDS011;34770;49.272;11.070;2022-12-29T12:57:22;5.20;;;3.10;;
16029;SDS011;34770;49.272;11.070;2022-12-29T13:00:08;3.33;;;2.45;;
16029;SDS011;34770;49.272;11.070;2022-12-29T13:08:36;6.75;;;2.80;;
16029;SDS011;34770;49.272;11.070;2022-12-29T13:11:14;2.55;;;2.20;;
16029;SDS011;34770;49.272;11.070;2022-12-29T13:22:39;6.47;;;3.53;;
16029;SDS011;34770;49.272;11.070;2022-12-29T13:25:27;4.38;;;2.58;;
16029;SDS011;34770;49.272;11.070;2022-12-29T13:36:02;4.13;;;3.20;;
16029;SDS011;34770;49.272;11.070;2022-12-29T13:41:42;2.60;;;2.13;;
16029;SDS011;34770;49.272;11.070;2022-12-29T13:44:25;5.68;;;3.25;;
16029;SDS011;34770;49.272;11.070;2022-12-29T13:47:00;8.43;;;5.25;;
16029;SDS011;34770;49.272;11.070;2022-12-29T13:49:56;3.92;;;2.42;;
16029;SDS011;34770;49.272;11.070;2022-12-29T13:52:43;5.07;;;2.90;;
16029;SDS011;34770;49.272;11.070;2022-12-29T13:55:58;3.95;;;2.58;;
16029;SDS011;34770;49.272;11.070;2022-12-29T13:58:34;6.80;;;3.88;;
16029;SDS011;34770;49.272;11.070;2022-12-29T14:04:08;8.05;;;3.33;;
16029;SDS011;34770;49.272;11.070;2022-12-29T15:05:02;5.82;;;3.53;;
16029;SDS011;34770;49.272;11.070;2022-12-29T15:07:30;10.32;;;4.75;;
16029;SDS011;34770;49.272;11.070;2022-12-29T15:10:03;8.43;;;5.70;;
16029;SDS011;34770;49.272;11.070;2022-12-29T15:12:47;7.35;;;5.63;;
16029;SDS011;34770;49.272;11.070;2022-12-29T15:15:22;13.40;;;7.10;;
16029;SDS011;34770;49.272;11.070;2022-12-29T15:17:51;13.23;;;7.72;;
16029;SDS011;34770;49.272;11.070;2022-12-29T15:22:55;9.85;;;5.68;;
16029;SDS011;34770;49.272;11.070;2022-12-29T15:25:25;4.95;;;3.72;;
16029;SDS011;34770;49.272;11.070;2022-12-29T15:27:53;15.40;;;3.78;;
16029;SDS011;34770;49.272;11.070;2022-12-29T15:30:24;6.47;;;3.83;;
16029;SDS011;34770;49.272;11.070;2022-12-29T15:32:51;5.07;;;3.58;;
16029;SDS011;34770;49.272;11.070;2022-12-29T15:35:25;4.38;;;3.20;;
16029;SDS011;34770;49.272;11.070;2022-12-29T15:37:55;3.15;;;2.83;;
16029;SDS011;34770;49.272;11.070;2022-12-29T16:00:58;11.50;;;6.25;;
16029;SDS011;34770;49.272;11.070;2022-12-29T16:03:27;9.07;;;5.65;;
16029;SDS011;34770;49.272;11.070;2022-12-29T16:09:04;11.88;;;5.85;;
16029;SDS011;34770;49.272;11.070;2022-12-29T16:11:34;8.07;;;4.70;;
16029;SDS011;34770;49.272;11.070;2022-12-29T16:14:08;5.35;;;4.25;;
16029;SDS011;34770;49.272;11.070;2022-12-29T16:16:42;5.13;;;3.78;;
16029;SDS011;34770;49.272;11.070;2022-12-29T16:35:00;4.43;;;3.72;;
16029;SDS011;34770;49.272;11.070;2022-12-29T16:37:35;4.68;;;3.75;;
16029;SDS011;34770;49.272;11.070;2022-12-29T16:42:48;6.68;;;5.13;;
16029;SDS011;34770;49.272;11.070;2022-12-29T16:50:35;7.20;;;5.50;;
16029;SDS011;34770;49.272;11.070;2022-12-29T16:53:06;9.15;;;6.40;;
16029;SDS011;34770;49.272;11.070;2022-12-29T16:56:08;8.45;;;6.10;;
16029;SDS011;34770;49.272;11.070;2022-12-29T16:58:46;15.70;;;6.80;;
16029;SDS011;34770;49.272;11.070;2022-12-29T17:01:14;11.48;;;5.50;;
16029;SDS011;34770;49.272;11.070;2022-12-29T17:03:53;10.80;;;6.65;;
16029;SDS011;34770;49.272;11.070;2022-12-29T17:06:26;11.60;;;6.70;;
16029;SDS011;34770;49.272;11.070;2022-12-29T17:08:54;13.88;;;8.65;;
16029;SDS011;34770;49.272;11.070;2022-12-29T17:11:30;12.05;;;7.53;;
16029;SDS011;34770;49.272;11.070;2022-12-29T17:20:18;12.32;;;8.10;;
16029;SDS011;34770;49.272;11.070;2022-12-29T17:22:48;11.50;;;7.93;;
16029;SDS011;34770;49.272;11.070;2022-12-29T17:25:19;5.93;;;4.20;;
16029;SDS011;34770;49.272;11.070;2022-12-29T17:27:57;9.15;;;5.50;;
16029;SDS011;34770;49.272;11.070;2022-12-29T17:30:35;7.90;;;6.45;;
16029;SDS011;34770;49.272;11.070;2022-12-29T17:33:11;7.43;;;5.20;;
16029;SDS011;34770;49.272;11.070;2022-12-29T17:35:53;10.60;;;6.95;;
16029;SDS011;34770;49.272;11.070;2022-12-29T17:38:37;10.02;;;6.28;;
16029;SDS011;34770;49.272;11.070;2022-12-29T17:41:45;7.63;;;6.30;;
16029;SDS011;34770;49.272;11.070;2022-12-29T17:45:05;5.80;;;3.72;;
16029;SDS011;34770;49.272;11.070;2022-12-29T17:47:50;5.25;;;3.88;;
16029;SDS011;34770;49.272;11.070;2022-12-29T17:50:20;5.63;;;2.88;;
16029;SDS011;34770;49.272;11.070;2022-12-29T17:52:52;4.65;;;3.92;;
16029;SDS011;34770;49.272;11.070;2022-12-29T17:55:22;3.22;;;2.90;;
16029;SDS011;34770;49.272;11.070;2022-12-29T17:57:58;3.22;;;2.92;;
16029;SDS011;34770;49.272;11.070;2022-12-29T18:00:29;5.28;;;3.35;;
16029;SDS011;34770;49.272;11.070;2022-12-29T18:02:59;4.07;;;3.67;;
16029;SDS011;34770;49.272;11.070;2022-12-29T18:05:29;4.28;;;3.60;;
16029;SDS011;34770;49.272;11.070;2022-12-29T18:08:08;6.30;;;4.55;;
16029;SDS011;34770;49.272;11.070;2022-12-29T18:10:52;5.88;;;3.60;;
16029;SDS011;34770;49.272;11.070;2022-12-29T18:13:28;7.40;;;4.70;;
16029;SDS011;34770;49.272;11.070;2022-12-29T18:15:59;4.82;;;4.30;;
16029;SDS011;34770;49.272;11.070;2022-12-29T18:18:35;5.32;;;4.32;;
16029;SDS011;34770;49.272;11.070;2022-12-29T18:21:13;5.18;;;3.33;;
16029;SDS011;34770;49.272;11.070;2022-12-29T18:23:45;4.47;;;3.58;;
16029;SDS011;34770;49.272;11.070;2022-12-29T18:26:19;6.60;;;3.95;;
16029;SDS011;34770;49.272;11.070;2022-12-29T18:29:00;4.25;;;3.75;;
16029;SDS011;34770;49.272;11.070;2022-12-29T18:31:46;5.88;;;3.40;;
16029;SDS011;34770;49.272;11.070;2022-12-29T18:34:17;7.82;;;5.50;;
16029;SDS011;34770;49.272;11.070;2022-12-29T18:36:58;3.35;;;3.05;;
16029;SDS011;34770;49.272;11.070;2022-12-29T18:39:30;5.72;;;3.97;;
16029;SDS011;34770;49.272;11.070;2022-12-29T18:42:08;9.35;;;6.13;;
16029;SDS011;34770;49.272;11.070;2022-12-29T18:44:47;9.70;;;6.85;;
16029;SDS011;34770;49.272;11.070;2022-12-29T18:47:20;14.38;;;10.93;;
16029;SDS011;34770;49.272;11.070;2022-12-29T18:49:54;12.50;;;7.63;;
16029;SDS011;34770;49.272;11.070;2022-12-29T18:52:24;11.60;;;7.72;;
16029;SDS011;34770;49.272;11.070;2022-12-29T18:55:00;10.60;;;6.60;;
16029;SDS011;34770;49.272;11.070;2022-12-29T18:57:38;8.80;;;4.53;;
16029;SDS011;34770;49.272;11.070;2022-12-29T19:00:11;4.68;;;4.18;;
16029;SDS011;34770;49.272;11.070;2022-12-29T19:02:47;7.47;;;5.97;;
16029;SDS011;34770;49.272;11.070;2022-12-29T19:05:27;6.88;;;4.07;;
16029;SDS011;34770;49.272;11.070;2022-12-29T19:08:05;7.13;;;4.93;;
16029;SDS011;34770;49.272;11.070;2022-12-29T19:10:43;9.95;;;5.90;;
16029;SDS011;34770;49.272;11.070;2022-12-29T19:13:20;11.95;;;5.88;;
16029;SDS011;34770;49.272;11.070;2022-12-29T19:15:54;10.65;;;5.32;;
16029;SDS011;34770;49.272;11.070;2022-12-29T19:18:27;10.02;;;6.68;;
16029;SDS011;34770;49.272;11.070;2022-12-29T19:21:07;12.40;;;6.80;;
16029;SDS011;34770;49.272;11.070;2022-12-29T19:23:42;11.70;;;7.70;;
16029;SDS011;34770;49.272;11.070;2022-12-29T19:26:32;9.02;;;6.32;;
16029;SDS011;34770;49.272;11.070;2022-12-29T19:29:13;11.18;;;7.43;;
16029;SDS011;34770;49.272;11.070;2022-12-29T19:31:57;8.20;;;5.55;;
16029;SDS011;34770;49.272;11.070;2022-12-29T19:34:35;4.07;;;3.28;;
16029;SDS011;34770;49.272;11.070;2022-12-29T19:37:06;6.35;;;5.50;;
16029;SDS011;34770;49.272;11.070;2022-12-29T19:39:59;7.22;;;4.13;;
16029;SDS011;34770;49.272;11.070;2022-12-29T19:42:38;4.03;;;3.40;;
16029;SDS011;34770;49.272;11.070;2022-12-29T19:45:29;4.60;;;4.13;;
16029;SDS011;34770;49.272;11.070;2022-12-29T20:09:17;7.68;;;4.53;;
16029;SDS011;34770;49.272;11.070;2022-12-29T20:11:51;3.22;;;2.95;;
16029;SDS011;34770;49.272;11.070;2022-12-29T20:14:43;4.10;;;2.53;;
16029;SDS011;34770;49.272;11.070;2022-12-29T20:17:30;5.00;;;2.38;;
16029;SDS011;34770;49.272;11.070;2022-12-29T20:20:07;4.10;;;3.05;;
16029;SDS011;34770;49.272;11.070;2022-12-29T20:22:41;5.60;;;3.47;;
16029;SDS011;34770;49.272;11.070;2022-12-29T20:25:15;4.03;;;2.80;;
16029;SDS011;34770;49.272;11.070;2022-12-29T20:27:53;7.18;;;2.45;;
16029;SDS011;34770;49.272;11.070;2022-12-29T20:30:31;2.50;;;2.30;;
16029;SDS011;34770;49.272;11.070;2022-12-29T20:33:12;4.45;;;2.50;;
16029;SDS011;34770;49.272;11.070;2022-12-29T20:35:47;2.03;;;1.83;;
16029;SDS011;34770;49.272;11.070;2022-12-29T20:38:18;4.97;;;2.75;;